DAUK

Touggourt Sidi Madhi Airport

Touggourt, Algeria
METAR DAUK 191500Z 04012KT CAVOK 18/05 Q1011
Observed Flight Rules
Jan-19 @ 15:00 UTC (31 minutes ago) Visual Flight Rules
Wind Visibility Clouds
40° at 12 knots 10,000+ meters
  • Clear skies
Temperatures Readings
Current 18°C / 64°F
Dewpoint 5°C / 41°F
Humidity 43%
Altimeter 29.85" Hg
Pressure 1011 hPa
Elevation 85
METAR DAUK 191500Z 04012KT CAVOK 18/05 Q1011
Observed Flight Rules
Jan-19 @ 15:00 UTC
(31 minutes ago)
VFR
Wind Visibility
40° at 12 knots 10,000+ meters
Clouds
  • Clear skies
Temperature Dewpoint
18°C / 64°F 5°C / 41°F
Humidity Altimeter Pressure
43% 29.85" Hg 1011 hPa